Time;durP1;ratioP1;P1;durP2;ratioP2;P2;SDS_P1;SDS_P2;PMS_P1;PMS_P2;Temp;Humidity;BMP_temperature;BMP_pressure;BME280_temperature;BME280_humidity;BME280_pressure;Samples;Min_cycle;Max_cycle;Signal;HPM_P1;HPM_P2
2021/10/12 00:00:21;;;;;;;35.28;26.40;;;9.20;99.30;;;;;;5060339;28;21213;-87
2021/10/12 00:02:48;;;;;;;34.33;22.80;;;9.20;99.50;;;;;;5062587;28;20201;-86
2021/10/12 00:05:15;;;;;;;30.52;22.75;;;9.10;99.70;;;;;;5059401;28;20753;-86
2021/10/12 00:07:43;;;;;;;41.72;30.35;;;9.10;99.70;;;;;;5060173;28;20661;-87
2021/10/12 00:10:12;;;;;;;35.55;24.38;;;9.20;99.90;;;;;;5061151;28;20630;-87
2021/10/12 00:12:38;;;;;;;52.80;38.22;;;9.10;99.90;;;;;;5057573;28;20314;-87
2021/10/12 00:15:08;;;;;;;42.40;30.08;;;9.20;99.90;;;;;;5062630;28;20228;-91
2021/10/12 00:17:36;;;;;;;38.00;25.67;;;9.40;99.90;;;;;;5053225;28;20205;-87
2021/10/12 00:20:04;;;;;;;29.17;22.23;;;9.40;99.50;;;;;;5061429;28;20232;-87
2021/10/12 00:22:31;;;;;;;31.67;21.58;;;9.40;99.30;;;;;;5061049;28;20220;-88
2021/10/12 00:24:58;;;;;;;33.33;24.52;;;9.30;99.30;;;;;;5058737;28;20222;-86
2021/10/12 00:27:25;;;;;;;30.83;21.40;;;9.40;99.60;;;;;;5058162;28;20202;-86
2021/10/12 00:29:52;;;;;;;30.05;22.05;;;9.40;99.00;;;;;;5047871;28;20291;-86
2021/10/12 00:32:19;;;;;;;31.17;21.50;;;9.50;99.50;;;;;;5057822;28;20224;-88
2021/10/12 00:34:47;;;;;;;31.17;20.67;;;9.40;99.10;;;;;;5059271;28;20681;-87
2021/10/12 00:37:15;;;;;;;27.50;19.38;;;9.50;99.30;;;;;;5059460;28;20204;-86
2021/10/12 00:39:42;;;;;;;27.13;21.52;;;9.50;99.00;;;;;;5057657;28;20230;-87
2021/10/12 00:42:09;;;;;;;26.48;18.13;;;9.60;99.20;;;;;;5052664;28;20234;-87
2021/10/12 00:44:36;;;;;;;24.33;18.48;;;9.50;98.90;;;;;;5060369;28;20221;-88
2021/10/12 00:47:04;;;;;;;26.15;20.13;;;9.60;98.60;;;;;;5058196;28;20198;-87
2021/10/12 00:49:30;;;;;;;24.02;18.02;;;9.80;98.70;;;;;;5057680;28;20232;-87
2021/10/12 00:51:59;;;;;;;23.75;17.92;;;9.80;98.10;;;;;;5059676;28;20562;-86
2021/10/12 00:54:25;;;;;;;23.50;17.02;;;9.80;97.80;;;;;;5053285;28;20233;-87
2021/10/12 00:56:52;;;;;;;24.65;17.33;;;9.80;98.10;;;;;;5062398;28;20208;-86
2021/10/12 00:59:19;;;;;;;24.20;16.13;;;9.70;98.20;;;;;;5060457;28;20306;-89
2021/10/12 01:01:46;;;;;;;22.75;16.25;;;9.60;98.00;;;;;;5060505;28;20205;-87
2021/10/12 01:04:13;;;;;;;24.92;17.02;;;9.60;98.30;;;;;;5053505;28;20232;-86
2021/10/12 01:06:40;;;;;;;25.02;17.38;;;9.60;98.30;;;;;;5063827;28;20566;-86
2021/10/12 01:09:43;;;;;;;23.20;16.30;;;9.70;98.40;;;;;;5058849;28;20285;-87
2021/10/12 01:12:10;;;;;;;22.55;16.52;;;9.80;97.50;;;;;;5054374;28;20209;-89
2021/10/12 01:14:38;;;;;;;23.58;16.83;;;9.70;97.50;;;;;;5056355;28;20218;-86
2021/10/12 01:17:05;;;;;;;24.02;16.67;;;9.60;97.90;;;;;;5075247;28;20205;-87
2021/10/12 01:19:34;;;;;;;20.15;16.05;;;9.70;98.20;;;;;;5062048;28;20231;-87
2021/10/12 01:22:02;;;;;;;23.08;16.90;;;9.60;98.60;;;;;;5063468;28;20237;-86
2021/10/12 01:24:29;;;;;;;23.23;16.50;;;9.70;98.30;;;;;;5058709;28;20222;-86
2021/10/12 01:26:56;;;;;;;23.65;17.38;;;9.60;98.10;;;;;;5063365;28;20200;-86
2021/10/12 01:29:23;;;;;;;24.92;17.92;;;9.60;98.60;;;;;;5063306;28;20225;-86
2021/10/12 01:31:50;;;;;;;24.85;17.15;;;9.70;98.50;;;;;;5063790;28;20209;-87
2021/10/12 01:34:20;;;;;;;25.70;18.00;;;9.70;98.20;;;;;;5065368;28;20245;-86
2021/10/12 01:36:47;;;;;;;30.70;18.25;;;9.60;98.50;;;;;;5061306;28;20198;-86
2021/10/12 01:39:16;;;;;;;24.77;17.45;;;9.60;98.60;;;;;;5053835;28;20232;-87
2021/10/12 01:41:44;;;;;;;24.88;17.50;;;9.60;98.30;;;;;;5063389;28;20274;-86
2021/10/12 01:44:12;;;;;;;25.38;17.17;;;9.60;98.60;;;;;;5062371;28;20225;-86
2021/10/12 01:46:39;;;;;;;22.50;16.90;;;9.50;98.40;;;;;;5063284;28;20264;-86
2021/10/12 01:49:07;;;;;;;25.92;16.38;;;9.50;98.60;;;;;;5063249;28;20324;-87
2021/10/12 01:51:34;;;;;;;23.77;17.52;;;9.50;98.70;;;;;;5054782;28;20292;-86
2021/10/12 01:54:01;;;;;;;26.55;17.80;;;9.40;98.60;;;;;;5050228;28;20241;-87
2021/10/12 01:56:30;;;;;;;24.25;17.50;;;9.50;99.10;;;;;;5060294;28;20265;-86
2021/10/12 01:58:57;;;;;;;26.02;18.58;;;9.60;98.60;;;;;;5062113;28;20285;-86
2021/10/12 02:01:26;;;;;;;23.92;17.75;;;9.60;98.50;;;;;;5061896;28;20202;-87
2021/10/12 02:03:52;;;;;;;25.92;18.02;;;9.60;98.10;;;;;;5061678;28;20238;-89
2021/10/12 02:06:19;;;;;;;23.65;17.30;;;9.60;98.10;;;;;;5060208;28;20658;-87
2021/10/12 02:08:46;;;;;;;25.33;18.30;;;9.50;98.40;;;;;;5065750;28;20304;-86
2021/10/12 02:11:13;;;;;;;26.10;18.63;;;9.50;98.60;;;;;;5063237;28;20204;-86
2021/10/12 02:13:41;;;;;;;26.50;18.85;;;9.50;99.00;;;;;;5063428;28;20656;-86
2021/10/12 02:16:08;;;;;;;27.48;19.13;;;9.60;99.00;;;;;;5064316;28;20202;-86
2021/10/12 02:18:35;;;;;;;24.58;17.85;;;9.60;98.70;;;;;;5064330;28;20289;-86
2021/10/12 02:21:02;;;;;;;27.13;17.90;;;9.70;98.40;;;;;;5062793;28;20204;-86
2021/10/12 02:23:29;;;;;;;26.13;18.42;;;9.60;98.10;;;;;;5062491;28;20289;-87
2021/10/12 02:25:56;;;;;;;25.55;17.92;;;9.60;98.10;;;;;;5063658;28;20202;-86
2021/10/12 02:28:23;;;;;;;25.25;18.17;;;9.70;98.20;;;;;;5062147;28;20244;-86
2021/10/12 02:30:51;;;;;;;28.13;18.50;;;9.70;98.10;;;;;;5062879;28;20296;-86
2021/10/12 02:33:18;;;;;;;26.30;18.75;;;9.60;97.90;;;;;;5071201;28;20229;-86
2021/10/12 02:35:45;;;;;;;26.95;19.13;;;9.50;97.90;;;;;;5062480;28;20201;-87
2021/10/12 02:38:12;;;;;;;27.60;18.80;;;9.50;98.50;;;;;;5062472;28;20568;-86
2021/10/12 02:40:42;;;;;;;26.38;19.90;;;9.50;98.60;;;;;;5061152;28;20251;-87
2021/10/12 02:43:09;;;;;;;29.25;19.95;;;9.60;98.00;;;;;;5063886;28;20209;-87
2021/10/12 02:45:36;;;;;;;29.92;20.02;;;9.60;97.80;;;;;;5060782;28;20280;-87
2021/10/12 02:48:04;;;;;;;26.08;19.27;;;9.50;98.00;;;;;;5061331;28;20208;-86
2021/10/12 02:50:31;;;;;;;32.08;20.63;;;9.40;98.10;;;;;;5061474;28;20205;-86
2021/10/12 02:52:58;;;;;;;30.60;20.52;;;9.30;98.60;;;;;;5054333;28;20224;-87
2021/10/12 02:55:25;;;;;;;29.65;19.52;;;9.20;98.60;;;;;;5061760;28;20645;-86
2021/10/12 02:57:52;;;;;;;29.40;20.65;;;9.30;99.30;;;;;;5062015;28;20212;-86
2021/10/12 03:00:19;;;;;;;28.63;19.98;;;9.40;99.30;;;;;;5062510;28;20649;-87
2021/10/12 03:02:46;;;;;;;30.05;20.23;;;9.30;98.80;;;;;;5061316;28;20210;-87
2021/10/12 03:05:14;;;;;;;29.48;19.55;;;9.30;99.10;;;;;;5061159;28;20232;-86
2021/10/12 03:07:41;;;;;;;30.67;21.05;;;9.40;99.00;;;;;;5078329;28;20208;-88
2021/10/12 03:10:09;;;;;;;27.98;19.35;;;9.40;98.70;;;;;;5052361;28;20219;-87
2021/10/12 03:12:36;;;;;;;32.42;21.17;;;9.50;98.70;;;;;;5064787;28;20692;-86
2021/10/12 03:15:03;;;;;;;31.10;19.70;;;9.60;98.50;;;;;;5060846;28;20762;-87
2021/10/12 03:17:31;;;;;;;27.58;19.77;;;9.60;98.20;;;;;;5066010;28;20289;-87
2021/10/12 03:19:57;;;;;;;31.85;20.55;;;9.60;98.30;;;;;;5064572;28;20225;-86
2021/10/12 03:22:26;;;;;;;27.70;20.45;;;9.60;97.70;;;;;;5065879;28;20305;-87
2021/10/12 03:24:55;;;;;;;28.08;19.80;;;9.60;98.00;;;;;;5069289;28;20228;-86
2021/10/12 03:27:22;;;;;;;27.77;18.92;;;9.60;97.80;;;;;;5064973;28;20200;-87
2021/10/12 03:29:49;;;;;;;32.72;19.60;;;9.50;97.80;;;;;;5053563;28;20240;-86
2021/10/12 03:32:16;;;;;;;28.92;18.90;;;9.60;98.00;;;;;;5065361;28;20304;-87
2021/10/12 03:34:43;;;;;;;26.38;19.45;;;9.60;97.70;;;;;;5061898;28;20238;-87
2021/10/12 03:37:09;;;;;;;32.30;20.42;;;9.50;97.70;;;;;;5064391;28;20561;-86
2021/10/12 03:39:38;;;;;;;28.38;20.20;;;9.40;97.60;;;;;;5062773;28;20221;-87
2021/10/12 03:42:05;;;;;;;30.30;19.88;;;9.30;98.10;;;;;;5063635;28;20213;-88
2021/10/12 03:44:32;;;;;;;29.75;19.10;;;9.30;98.60;;;;;;5060369;28;20464;-86
2021/10/12 03:46:59;;;;;;;27.55;19.27;;;9.40;98.60;;;;;;5064076;28;20256;-87
2021/10/12 03:49:26;;;;;;;26.35;18.65;;;9.40;98.40;;;;;;5063368;28;20696;-87
2021/10/12 03:51:53;;;;;;;29.45;18.15;;;9.50;98.40;;;;;;5063534;28;20205;-87
2021/10/12 03:54:20;;;;;;;27.38;19.55;;;9.60;98.00;;;;;;5053417;28;20226;-86
2021/10/12 03:56:48;;;;;;;30.65;20.23;;;9.50;97.70;;;;;;5061582;28;20296;-88
2021/10/12 03:59:15;;;;;;;29.45;20.08;;;9.20;97.60;;;;;;5062502;28;20244;-89
2021/10/12 04:01:43;;;;;;;28.67;20.33;;;9.10;98.10;;;;;;5060596;28;20210;-88
2021/10/12 04:04:09;;;;;;;28.40;19.17;;;9.00;98.50;;;;;;5057853;28;20248;-87
2021/10/12 04:06:36;;;;;;;28.88;19.77;;;9.00;98.80;;;;;;5054317;28;20202;-87
2021/10/12 04:09:04;;;;;;;32.20;20.88;;;8.80;98.80;;;;;;5057451;28;20227;-88
2021/10/12 04:11:30;;;;;;;30.52;20.17;;;8.70;99.00;;;;;;5057656;28;20662;-88
2021/10/12 04:13:59;;;;;;;28.40;19.27;;;8.70;99.40;;;;;;5069256;28;20316;-87
2021/10/12 04:16:26;;;;;;;29.52;19.30;;;8.90;99.90;;;;;;5061747;28;20213;-88
2021/10/12 04:18:53;;;;;;;29.80;19.80;;;9.00;99.50;;;;;;5058848;28;20244;-87
2021/10/12 04:21:20;;;;;;;29.70;19.40;;;9.00;99.10;;;;;;5064082;28;20194;-88
2021/10/12 04:23:47;;;;;;;28.13;19.75;;;9.10;99.30;;;;;;5059374;28;20229;-86
2021/10/12 04:26:16;;;;;;;30.77;18.92;;;9.10;99.20;;;;;;5057581;28;20609;-86
2021/10/12 04:28:42;;;;;;;29.45;19.50;;;9.10;99.30;;;;;;5059434;28;20244;-87
2021/10/12 04:31:12;;;;;;;34.13;20.83;;;9.20;99.00;;;;;;5066307;28;20202;-87
2021/10/12 04:33:39;;;;;;;28.77;18.88;;;9.10;98.50;;;;;;5057342;28;20245;-87
2021/10/12 04:36:06;;;;;;;33.85;20.40;;;9.00;98.50;;;;;;5060452;28;20204;-91
2021/10/12 04:38:33;;;;;;;29.73;20.27;;;9.00;99.00;;;;;;5056607;28;20226;-87
2021/10/12 04:41:02;;;;;;;27.70;19.45;;;8.90;99.10;;;;;;5060661;28;20896;-87
2021/10/12 04:43:31;;;;;;;30.45;19.38;;;8.90;99.50;;;;;;5062739;28;20235;-88
2021/10/12 04:46:00;;;;;;;29.70;19.38;;;8.80;99.30;;;;;;5045449;28;20198;-91
2021/10/12 04:48:28;;;;;;;31.25;19.30;;;8.80;99.50;;;;;;5051644;28;20228;-87
2021/10/12 04:50:56;;;;;;;29.33;19.02;;;8.70;99.60;;;;;;5060943;28;20289;-90
2021/10/12 04:53:23;;;;;;;32.20;19.90;;;8.60;99.90;;;;;;5058578;28;20234;-87
2021/10/12 04:55:50;;;;;;;29.85;20.00;;;8.70;99.90;;;;;;5063618;28;20574;-88
2021/10/12 04:58:17;;;;;;;30.65;20.38;;;8.70;99.90;;;;;;5055713;28;20230;-86
2021/10/12 05:00:44;;;;;;;34.75;19.70;;;8.70;99.90;;;;;;5057378;28;20224;-86
2021/10/12 05:03:11;;;;;;;30.83;19.33;;;8.60;99.90;;;;;;5049170;28;20230;-86
2021/10/12 05:05:40;;;;;;;28.25;18.92;;;8.70;99.90;;;;;;5061245;28;20648;-86
2021/10/12 05:08:07;;;;;;;29.58;19.55;;;8.60;99.90;;;;;;5061508;28;20276;-86
2021/10/12 05:10:34;;;;;;;29.40;18.80;;;8.70;99.90;;;;;;5058954;28;20195;-87
2021/10/12 05:13:00;;;;;;;31.30;20.17;;;8.70;99.90;;;;;;5059026;28;20225;-87
2021/10/12 05:15:29;;;;;;;28.75;18.98;;;8.60;99.90;;;;;;5042064;28;20206;-87
2021/10/12 05:17:56;;;;;;;28.15;18.98;;;8.60;99.90;;;;;;5053300;28;20205;-86
2021/10/12 05:20:24;;;;;;;31.42;19.88;;;8.60;99.90;;;;;;5059927;28;20213;-88
2021/10/12 05:23:01;;;;;;;27.98;19.15;;;8.70;99.90;;;;;;5060765;28;20202;-88
2021/10/12 05:25:32;;;;;;;29.05;18.85;;;8.70;99.90;;;;;;5075090;28;20208;-88
2021/10/12 05:27:59;;;;;;;28.20;19.27;;;8.90;99.90;;;;;;5067060;28;20261;-87
2021/10/12 05:30:26;;;;;;;31.30;20.25;;;9.10;99.90;;;;;;5060978;28;20194;-87
2021/10/12 05:32:53;;;;;;;31.42;20.02;;;9.20;99.90;;;;;;5062350;28;20205;-86
2021/10/12 05:35:20;;;;;;;26.17;18.33;;;9.20;99.80;;;;;;5059209;28;20210;-87
2021/10/12 05:37:47;;;;;;;27.35;18.58;;;9.10;99.70;;;;;;5063047;28;20269;-88
2021/10/12 05:40:16;;;;;;;31.60;19.30;;;9.20;99.70;;;;;;5063500;28;20198;-87
2021/10/12 05:42:43;;;;;;;28.20;19.25;;;9.10;99.50;;;;;;5047232;28;20213;-89
2021/10/12 05:45:19;;;;;;;30.13;19.45;;;9.30;99.90;;;;;;5058327;28;20223;-87
2021/10/12 05:47:46;;;;;;;28.92;18.95;;;9.40;99.40;;;;;;5056787;28;20204;-89
2021/10/12 05:50:13;;;;;;;29.33;19.20;;;9.40;98.80;;;;;;5062589;28;20651;-87
2021/10/12 05:56:14;;;;;;;27.80;19.08;;;9.40;98.60;;;;;;5060684;28;20305;-89
2021/10/12 05:58:43;;;;;;;30.48;19.67;;;9.50;98.60;;;;;;5063456;28;20284;-88
2021/10/12 06:01:11;;;;;;;31.75;19.23;;;9.50;98.10;;;;;;5063804;28;20208;-89
2021/10/12 06:07:06;;;;;;;28.55;19.30;;;9.50;98.60;;;;;;5061994;28;20190;-88
2021/10/12 06:09:33;;;;;;;25.33;17.92;;;9.50;98.30;;;;;;5066735;28;20659;-89
2021/10/12 06:12:01;;;;;;;28.63;18.50;;;9.60;98.40;;;;;;5063323;28;20202;-88
2021/10/12 06:14:28;;;;;;;33.35;18.23;;;9.50;97.80;;;;;;5062043;28;20236;-89
2021/10/12 06:17:24;;;;;;;23.95;18.23;;;9.60;97.60;;;;;;5070935;28;20203;-89
2021/10/12 06:19:51;;;;;;;28.55;19.20;;;9.60;98.10;;;;;;5056723;28;20241;-89
2021/10/12 06:22:19;;;;;;;27.20;18.13;;;9.60;97.80;;;;;;5065419;28;20250;-89
2021/10/12 06:25:20;;;;;;;25.55;18.17;;;9.70;98.00;;;;;;5067683;28;20237;-88
2021/10/12 06:28:15;;;;;;;24.35;17.25;;;9.80;97.60;;;;;;5063304;28;20717;-88
2021/10/12 06:30:58;;;;;;;25.80;17.20;;;9.90;97.20;;;;;;5059626;28;20194;-92
2021/10/12 06:33:25;;;;;;;30.65;17.60;;;9.90;96.80;;;;;;5056482;28;20296;-88
2021/10/12 06:36:41;;;;;;;24.30;17.33;;;9.80;96.20;;;;;;5060947;28;20205;-87
2021/10/12 06:39:09;;;;;;;26.00;17.42;;;9.90;96.60;;;;;;5060915;28;20245;-87
2021/10/12 06:44:33;;;;;;;25.85;17.45;;;9.80;96.50;;;;;;5038945;28;20712;-87
2021/10/12 06:47:46;;;;;;;26.55;19.25;;;9.80;96.10;;;;;;5063441;28;20186;-87
2021/10/12 06:57:55;;;;;;;23.88;17.08;;;9.70;96.60;;;;;;5066321;28;20178;-87
2021/10/12 07:00:24;;;;;;;29.17;17.77;;;9.80;96.70;;;;;;5066239;28;20198;-87
2021/10/12 07:02:51;;;;;;;25.60;16.73;;;9.90;96.10;;;;;;5066757;28;20186;-87
2021/10/12 07:22:45;;;;;;;24.52;16.83;;;10.30;94.80;;;;;;5552286;22;20233;-87
2021/10/12 07:25:11;;;;;;;24.35;17.48;;;10.40;95.00;;;;;;5089383;27;20201;-86
2021/10/12 07:27:38;;;;;;;25.52;17.38;;;10.30;95.00;;;;;;5086248;28;20196;-86
2021/10/12 07:30:15;;;;;;;27.80;19.08;;;10.30;94.70;;;;;;5085295;28;20264;-86
2021/10/12 07:32:47;;;;;;;23.98;17.65;;;10.20;95.00;;;;;;5087771;28;20275;-88
2021/10/12 07:35:14;;;;;;;26.80;16.92;;;10.10;95.20;;;;;;5086398;28;20313;-87
2021/10/12 07:37:49;;;;;;;25.23;18.05;;;10.20;95.80;;;;;;5085852;28;20190;-87
2021/10/12 07:40:19;;;;;;;27.70;18.25;;;10.20;95.60;;;;;;5078554;28;20220;-87
2021/10/12 07:42:46;;;;;;;28.70;18.70;;;10.20;95.20;;;;;;5085981;28;20224;-89
2021/10/12 07:45:13;;;;;;;28.23;19.83;;;10.20;95.50;;;;;;5076168;28;20636;-86
2021/10/12 07:47:40;;;;;;;26.10;18.70;;;10.10;95.60;;;;;;5083953;28;20213;-87
2021/10/12 07:50:08;;;;;;;27.08;19.25;;;10.00;95.70;;;;;;5093711;27;20268;-86
2021/10/12 08:09:57;;;;;;;28.00;17.63;;;10.40;95.20;;;;;;5097633;27;20188;-87
2021/10/12 08:22:52;;;;;;;25.85;17.83;;;10.60;94.80;;;;;;5487785;22;20259;-86
2021/10/12 08:25:20;;;;;;;23.38;17.85;;;10.70;95.00;;;;;;5086625;28;20194;-87
2021/10/12 08:49:19;;;;;;;24.25;16.25;;;11.20;93.20;;;;;;5085656;28;20258;-87
2021/10/12 08:55:46;;;;;;;22.13;15.85;;;11.10;93.40;;;;;;5087378;28;20220;-88
2021/10/12 08:58:13;;;;;;;14.65;11.93;;;11.10;93.00;;;;;;5088600;28;20287;-88
2021/10/12 09:00:40;;;;;;;17.23;12.23;;;10.90;91.70;;;;;;5083279;28;20285;-87
2021/10/12 11:36:01;;;;;;;15.20;10.18;;;12.10;88.20;;;;;;5149128;22;20234;-88
2021/10/12 11:38:34;;;;;;;15.13;9.70;;;12.00;85.50;;;;;;5100064;27;20232;-87
2021/10/12 11:41:16;;;;;;;13.40;9.73;;;11.90;86.90;;;;;;5095995;28;20249;-89
2021/10/12 11:43:44;;;;;;;14.45;9.68;;;11.70;89.50;;;;;;5092976;28;20312;-87
2021/10/12 11:50:35;;;;;;;12.52;9.90;;;11.60;90.10;;;;;;5084514;28;20217;-88
2021/10/12 11:53:03;;;;;;;11.70;9.38;;;11.30;90.20;;;;;;5089983;27;20633;-88
2021/10/12 11:55:31;;;;;;;11.52;9.32;;;11.40;90.10;;;;;;5105228;27;20585;-88
2021/10/12 11:58:10;;;;;;;12.85;9.15;;;11.50;89.00;;;;;;5104666;28;20741;-89
2021/10/12 12:00:38;;;;;;;13.73;9.77;;;11.40;90.60;;;;;;5100414;28;20196;-89
2021/10/12 12:03:18;;;;;;;14.23;10.43;;;11.50;90.60;;;;;;5107993;28;20236;-90
2021/10/12 12:05:52;;;;;;;13.73;10.32;;;11.30;90.60;;;;;;5109850;28;20192;-88
2021/10/12 12:08:21;;;;;;;12.45;9.07;;;11.20;90.50;;;;;;5103504;28;20220;-90
2021/10/12 12:10:49;;;;;;;11.93;9.85;;;11.20;90.60;;;;;;5096018;28;20303;-88
2021/10/12 12:13:16;;;;;;;14.57;10.40;;;11.20;90.60;;;;;;5199223;22;20292;-89
2021/10/12 12:15:44;;;;;;;12.45;9.50;;;11.10;91.30;;;;;;5088903;28;20307;-89
2021/10/12 12:18:15;;;;;;;15.38;10.57;;;11.10;91.50;;;;;;5081599;28;20615;-88
2021/10/12 12:20:54;;;;;;;16.92;10.82;;;11.00;91.50;;;;;;5084262;28;20202;-88
2021/10/12 12:24:17;;;;;;;12.75;10.25;;;10.70;92.40;;;;;;5090350;28;20216;-88
2021/10/12 12:26:46;;;;;;;14.52;10.73;;;10.70;93.00;;;;;;5081865;28;20217;-89
2021/10/12 12:32:00;;;;;;;13.93;9.45;;;10.70;92.70;;;;;;5084893;28;20213;-88
2021/10/12 12:34:32;;;;;;;14.02;10.38;;;10.90;91.50;;;;;;5086993;28;20197;-88
2021/10/12 12:37:26;;;;;;;12.60;9.93;;;10.80;92.00;;;;;;5069658;28;20280;-89
2021/10/12 12:39:53;;;;;;;13.65;10.75;;;10.80;92.30;;;;;;5080501;28;20316;-87
2021/10/12 12:42:36;;;;;;;13.82;10.55;;;10.90;92.40;;;;;;5075608;28;20213;-88
2021/10/12 12:45:11;;;;;;;13.40;10.52;;;11.10;91.90;;;;;;5085715;28;20221;-89
2021/10/12 12:47:38;;;;;;;14.57;11.15;;;11.30;91.00;;;;;;5082074;28;20204;-89
2021/10/12 12:50:10;;;;;;;11.00;9.68;;;11.30;91.10;;;;;;5065356;28;20245;-87
2021/10/12 12:59:40;;;;;;;13.13;9.95;;;11.20;90.50;;;;;;5070563;28;20245;-88
2021/10/12 13:02:49;;;;;;;10.57;9.40;;;11.10;90.50;;;;;;5066705;28;20269;-88
2021/10/12 14:27:52;;;;;;;12.45;9.38;;;10.50;91.70;;;;;;5334403;22;20236;-87
2021/10/12 14:31:00;;;;;;;10.20;8.32;;;10.40;92.20;;;;;;5080934;28;20583;-88
2021/10/12 14:33:30;;;;;;;8.88;7.57;;;10.40;92.00;;;;;;5094536;27;20199;-89
2021/10/12 14:46:53;;;;;;;10.75;7.70;;;10.90;90.50;;;;;;5084962;28;20193;-87
2021/10/12 14:52:56;;;;;;;9.82;7.22;;;11.00;89.30;;;;;;5084439;28;20160;-88
2021/10/12 14:58:58;;;;;;;9.55;6.72;;;11.10;87.90;;;;;;5082894;28;20185;-87
2021/10/12 15:08:34;;;;;;;9.45;7.30;;;11.10;90.00;;;;;;5084554;27;20212;-87
2021/10/12 15:11:02;;;;;;;10.60;7.45;;;11.00;90.00;;;;;;5082162;28;20209;-87
2021/10/12 16:11:02;;;;;;;9.07;7.22;;;10.40;91.20;;;;;;5010651;28;20230;-89
2021/10/12 16:22:54;;;;;;;9.35;8.00;;;10.00;93.10;;;;;;5068644;28;20234;-89
2021/10/12 16:25:21;;;;;;;10.57;8.43;;;9.90;93.90;;;;;;5065388;28;20268;-89
2021/10/12 16:27:48;;;;;;;11.93;8.35;;;9.90;94.50;;;;;;5066125;28;20205;-88
2021/10/12 16:30:20;;;;;;;10.23;8.10;;;9.90;95.00;;;;;;5056976;28;20238;-88
2021/10/12 16:32:47;;;;;;;10.68;7.85;;;9.90;95.10;;;;;;5054052;28;20273;-88
2021/10/12 16:35:15;;;;;;;10.00;8.07;;;9.80;95.20;;;;;;5061332;28;20229;-89
2021/10/12 16:37:53;;;;;;;9.63;8.35;;;9.90;95.00;;;;;;5063293;28;20221;-87
2021/10/12 16:40:21;;;;;;;15.77;8.65;;;9.90;95.00;;;;;;5061541;28;20304;-87
2021/10/12 16:42:49;;;;;;;9.80;8.25;;;9.90;95.10;;;;;;5060207;28;20210;-89
2021/10/12 16:45:18;;;;;;;10.38;8.15;;;9.90;95.30;;;;;;5061430;28;20225;-89
2021/10/12 16:47:44;;;;;;;13.23;8.98;;;9.80;95.60;;;;;;5058778;28;20224;-88
2021/10/12 16:50:12;;;;;;;11.27;9.07;;;9.70;96.00;;;;;;5055389;28;20672;-89
2021/10/12 16:52:40;;;;;;;16.33;9.13;;;9.70;96.10;;;;;;5060839;28;20229;-89
2021/10/12 16:55:10;;;;;;;10.80;8.70;;;9.70;96.00;;;;;;5060239;28;20309;-88
2021/10/12 16:57:37;;;;;;;11.45;9.05;;;9.70;96.00;;;;;;5066300;28;20266;-89
2021/10/12 17:00:04;;;;;;;11.65;8.60;;;9.60;96.00;;;;;;5057742;28;20312;-89
2021/10/12 17:02:31;;;;;;;10.52;8.48;;;9.60;96.00;;;;;;5050624;28;20240;-89
2021/10/12 17:05:09;;;;;;;11.63;8.63;;;9.60;96.30;;;;;;5063466;28;20277;-90
2021/10/12 17:07:36;;;;;;;12.88;8.82;;;9.50;96.10;;;;;;5056356;28;20241;-91
2021/10/12 17:10:04;;;;;;;12.32;9.13;;;9.50;96.90;;;;;;5042697;28;20232;-90
2021/10/12 17:12:33;;;;;;;10.90;8.68;;;9.40;97.40;;;;;;5055837;28;20309;-91
2021/10/12 17:15:00;;;;;;;10.70;8.82;;;9.40;97.20;;;;;;5052697;28;20217;-89
2021/10/12 17:17:27;;;;;;;12.30;8.75;;;9.40;97.90;;;;;;5045612;28;20623;-88
2021/10/12 17:20:18;;;;;;;11.80;8.93;;;9.40;97.90;;;;;;5056120;28;20907;-87
2021/10/12 17:22:45;;;;;;;11.80;8.32;;;9.30;97.70;;;;;;5046289;28;20235;-90
2021/10/12 17:25:12;;;;;;;9.80;8.50;;;9.30;97.80;;;;;;5052606;28;20308;-89
2021/10/12 17:27:40;;;;;;;12.23;7.93;;;9.30;97.70;;;;;;5058983;28;20206;-89
2021/10/12 17:30:08;;;;;;;10.10;7.72;;;9.20;97.60;;;;;;5061992;28;20221;-90
2021/10/12 17:32:34;;;;;;;11.73;8.48;;;9.20;97.50;;;;;;5053242;28;20214;-90
2021/10/12 17:35:02;;;;;;;10.57;7.93;;;9.20;97.70;;;;;;5055386;28;20247;-87
2021/10/12 17:37:29;;;;;;;11.60;8.60;;;9.10;98.00;;;;;;5060083;28;20676;-93
2021/10/12 17:42:40;;;;;;;10.18;7.60;;;9.10;98.10;;;;;;5047597;28;20202;-87
2021/10/12 17:45:14;;;;;;;9.00;7.30;;;9.10;98.30;;;;;;5050388;28;20219;-91
2021/10/12 17:47:41;;;;;;;10.70;8.10;;;9.10;98.00;;;;;;5052090;28;20575;-89
2021/10/12 17:50:10;;;;;;;11.73;7.40;;;9.20;97.90;;;;;;5050100;28;20313;-89
2021/10/12 17:52:38;;;;;;;9.85;7.40;;;9.20;97.80;;;;;;5056267;28;20273;-89
2021/10/12 17:55:14;;;;;;;10.57;7.80;;;9.20;97.90;;;;;;5049303;28;20708;-90
2021/10/12 17:57:52;;;;;;;9.68;7.55;;;9.10;97.80;;;;;;5052508;28;20244;-91
2021/10/12 18:00:21;;;;;;;10.45;7.93;;;9.10;98.10;;;;;;5049923;28;20213;-89
2021/10/12 18:02:50;;;;;;;9.60;7.50;;;9.10;98.20;;;;;;5049166;28;20274;-89
2021/10/12 18:05:17;;;;;;;10.77;7.80;;;9.10;97.90;;;;;;5048166;28;20565;-90
2021/10/12 18:07:48;;;;;;;12.52;7.65;;;9.20;97.70;;;;;;5054340;28;20657;-89
2021/10/12 18:10:17;;;;;;;9.18;7.15;;;9.20;97.40;;;;;;5050697;28;20232;-89
2021/10/12 18:12:44;;;;;;;13.43;7.30;;;9.20;97.20;;;;;;5043994;28;20236;-88
2021/10/12 18:15:13;;;;;;;11.50;8.20;;;9.20;97.20;;;;;;5053108;28;20673;-89
2021/10/12 18:17:40;;;;;;;9.70;6.88;;;9.20;96.80;;;;;;5046796;28;20704;-91
2021/10/12 18:20:09;;;;;;;8.75;7.28;;;9.30;96.80;;;;;;5050485;28;20317;-88
2021/10/12 18:22:39;;;;;;;10.00;7.55;;;9.20;97.20;;;;;;5045126;28;20202;-88
2021/10/12 18:25:14;;;;;;;9.60;7.20;;;9.30;97.70;;;;;;5046651;28;20249;-88
2021/10/12 18:27:47;;;;;;;10.55;7.28;;;9.30;96.80;;;;;;5047376;28;20190;-91
2021/10/12 18:30:17;;;;;;;10.48;7.45;;;9.30;96.80;;;;;;5052121;28;20225;-88
2021/10/12 18:32:44;;;;;;;10.27;7.05;;;9.30;97.00;;;;;;5052399;28;20279;-89
2021/10/12 18:35:11;;;;;;;10.63;7.72;;;9.20;96.80;;;;;;5044589;28;20293;-90
2021/10/12 18:37:38;;;;;;;11.23;7.18;;;9.00;97.00;;;;;;5053070;28;20217;-89
2021/10/12 18:40:07;;;;;;;9.65;7.70;;;9.00;97.50;;;;;;5043697;28;20309;-89
2021/10/12 18:42:34;;;;;;;14.15;7.70;;;9.00;97.70;;;;;;5053807;28;20306;-88
2021/10/12 18:45:01;;;;;;;11.68;7.60;;;9.00;97.70;;;;;;5058194;28;20217;-88
2021/10/12 18:47:30;;;;;;;11.65;9.82;;;9.00;97.70;;;;;;5057892;28;20697;-88
2021/10/12 18:50:02;;;;;;;11.90;8.27;;;9.00;97.90;;;;;;5048092;28;20309;-89
2021/10/12 18:52:33;;;;;;;9.73;7.90;;;9.00;97.80;;;;;;5049606;28;20342;-89
2021/10/12 18:55:05;;;;;;;11.02;8.20;;;9.00;97.80;;;;;;5051710;28;20229;-89
2021/10/12 18:57:36;;;;;;;10.82;7.65;;;9.00;98.00;;;;;;5048775;28;20221;-89
2021/10/12 19:00:05;;;;;;;9.48;7.68;;;9.00;98.00;;;;;;5056592;28;20753;-90
2021/10/12 19:02:34;;;;;;;9.23;7.60;;;9.00;98.10;;;;;;5047615;28;20226;-89
2021/10/12 19:05:04;;;;;;;11.93;7.68;;;9.10;97.90;;;;;;5043807;28;20310;-89
2021/10/12 19:07:31;;;;;;;11.70;8.40;;;9.00;97.50;;;;;;5054446;28;20216;-90
2021/10/12 19:10:01;;;;;;;13.55;9.13;;;9.10;97.70;;;;;;5051480;28;20214;-88
2021/10/12 19:12:29;;;;;;;11.52;8.50;;;9.10;97.80;;;;;;5056223;28;20224;-88
2021/10/12 19:14:56;;;;;;;11.00;8.45;;;9.00;97.70;;;;;;5053440;28;20631;-91
2021/10/12 19:17:28;;;;;;;9.60;8.13;;;9.00;98.50;;;;;;5051795;28;20318;-89
2021/10/12 19:19:57;;;;;;;13.98;8.77;;;9.00;98.40;;;;;;5049331;28;20236;-90
2021/10/12 19:22:26;;;;;;;12.90;8.93;;;9.00;98.40;;;;;;5048477;28;20773;-90
2021/10/12 19:24:56;;;;;;;9.60;8.50;;;9.00;98.30;;;;;;5056976;28;20218;-90
2021/10/12 19:27:23;;;;;;;12.50;8.57;;;9.00;98.40;;;;;;5059543;28;20331;-90
2021/10/12 19:29:51;;;;;;;12.65;9.13;;;9.00;98.50;;;;;;5056368;28;20289;-91
2021/10/12 19:32:20;;;;;;;12.60;8.75;;;9.00;98.50;;;;;;5060432;28;20201;-89
2021/10/12 19:34:47;;;;;;;10.50;8.25;;;9.00;98.50;;;;;;5057536;28;20217;-92
2021/10/12 19:37:18;;;;;;;13.45;9.15;;;8.90;98.60;;;;;;5050377;28;20222;-90
2021/10/12 19:39:48;;;;;;;16.55;9.48;;;9.00;98.70;;;;;;5048167;28;20264;-89
2021/10/12 19:42:15;;;;;;;11.95;8.88;;;8.90;98.80;;;;;;5055435;28;20213;-89
2021/10/12 19:44:46;;;;;;;13.25;9.43;;;8.90;99.30;;;;;;5055194;28;20218;-89
2021/10/12 19:47:14;;;;;;;15.98;9.88;;;8.90;99.50;;;;;;5050634;28;20214;-92
2021/10/12 19:49:41;;;;;;;15.40;9.77;;;8.80;99.50;;;;;;5050546;28;20228;-90
2021/10/12 19:52:09;;;;;;;15.80;10.57;;;8.90;99.50;;;;;;5056732;28;20223;-89
2021/10/12 19:54:38;;;;;;;15.27;9.80;;;8.80;99.60;;;;;;5059518;28;20702;-88
2021/10/12 19:57:06;;;;;;;13.82;9.40;;;8.80;99.80;;;;;;5057093;28;20245;-89
2021/10/12 19:59:34;;;;;;;12.35;9.70;;;8.60;99.60;;;;;;5057301;28;20236;-92
2021/10/12 20:04:45;;;;;;;15.95;10.52;;;8.60;99.90;;;;;;5058180;28;20240;-90